Kirkby, United Kingdom
Current Conditions -  °F | °C
As of 6:50 AM on Tuesday 21 Oct 2014 (Local Time) from EGGP Reporting Station
Moderate Rain Moderate Rain  
Wind Chill: 54°   Ceiling: 2200
Heat Index: 54°   Visibility: 6mi
Dew Point: 48°   Wind: 30mph
Humidity: 82%   Direction: 280°W
Pressure: 29.41"   Gusts: 41mph
Location:  53.48°N, 2.9°W
Report Text: EGGP 210550Z 28026G36KT 9999 RA FEW015 BKN022 12/09 Q0996
Loading
Personal Weather Stations






























Interactive Weather Map
Tropical Storm Tracking
New forecast layout! Learn more

10-Day Weather Forecast

Advertisements
Track Severe Weather on mobile